createdAt,value
2019-04-20T00:00:04.311Z,75.70
2019-04-20T00:02:31.713Z,75.10
2019-04-20T00:05:01.162Z,75.90
2019-04-20T00:07:34.273Z,74.80
2019-04-20T00:10:08.755Z,76.70
2019-04-20T00:12:45.387Z,77.40
2019-04-20T00:15:09.068Z,76.80
2019-04-20T00:17:41.203Z,77.80
2019-04-20T00:20:15.594Z,77.90
2019-04-20T00:22:58.214Z,77.70
2019-04-20T00:25:54.941Z,77.90
2019-04-20T00:28:31.319Z,78.60
2019-04-20T00:31:05.604Z,78.60
2019-04-20T00:33:34.943Z,79.30
2019-04-20T00:35:48.498Z,79.20
2019-04-20T00:38:18.061Z,78.40
2019-04-20T00:40:50.563Z,78.70
2019-04-20T00:43:24.496Z,78.90
2019-04-20T00:45:55.663Z,78.60
2019-04-20T00:48:31.513Z,78.90
2019-04-20T00:51:11.460Z,79.20
2019-04-20T00:53:30.326Z,79.00
2019-04-20T00:55:52.953Z,78.90
2019-04-20T00:58:29.952Z,79.60
2019-04-20T01:01:13.056Z,80.80
2019-04-20T01:03:41.281Z,80.60
2019-04-20T01:06:26.867Z,80.50
2019-04-20T01:08:44.274Z,80.60
2019-04-20T01:11:16.773Z,81.00
2019-04-20T01:13:49.402Z,80.40
2019-04-20T01:16:25.220Z,80.60
2019-04-20T01:18:47.135Z,79.20
2019-04-20T01:21:20.336Z,81.00
2019-04-20T01:23:54.452Z,81.10
2019-04-20T01:26:19.702Z,80.60
2019-04-20T01:29:04.192Z,80.90
2019-04-20T01:31:27.294Z,80.50
2019-04-20T01:33:58.766Z,80.70
2019-04-20T01:36:37.102Z,80.60
2019-04-20T01:39:02.727Z,80.30
2019-04-20T01:41:22.171Z,79.30
2019-04-20T01:43:52.251Z,80.70
2019-04-20T01:46:24.013Z,80.50
2019-04-20T01:48:52.623Z,80.40
2019-04-20T01:51:28.158Z,80.70
2019-04-20T01:54:09.151Z,80.20
2019-04-20T01:56:38.483Z,80.10
2019-04-20T01:59:10.674Z,79.60
2019-04-20T02:01:38.034Z,80.80
2019-04-20T02:04:11.939Z,81.10
2019-04-20T02:06:43.401Z,81.10
2019-04-20T02:09:14.939Z,81.80
2019-04-20T02:11:44.694Z,82.20
2019-04-20T02:14:13.678Z,82.80
2019-04-20T02:16:47.628Z,83.00
2019-04-20T02:19:29.069Z,82.90
2019-04-20T02:21:59.156Z,82.60
2019-04-20T02:24:14.873Z,82.60
2019-04-20T02:26:45.105Z,82.10
2019-04-20T02:29:37.467Z,81.60
2019-04-20T02:34:55.556Z,83.20
2019-04-20T02:37:28.346Z,83.80
2019-04-20T02:39:58.307Z,84.20
2019-04-20T02:42:24.215Z,84.20
2019-04-20T02:45:04.315Z,84.20
2019-04-20T02:47:30.695Z,84.40
2019-04-20T02:52:33.133Z,85.40
2019-04-20T02:55:02.200Z,85.50
2019-04-20T02:57:37.863Z,84.30
2019-04-20T03:00:09.845Z,85.50
2019-04-20T03:02:17.244Z,86.30
2019-04-20T03:04:37.082Z,87.50
2019-04-20T03:07:14.063Z,87.20
2019-04-20T03:09:50.203Z,87.60
2019-04-20T03:12:23.590Z,86.90
2019-04-20T03:14:47.768Z,88.00
2019-04-20T03:17:29.654Z,87.70
2019-04-20T03:19:51.677Z,87.80
2019-04-20T03:22:33.517Z,88.30
2019-04-20T03:24:54.444Z,88.00
2019-04-20T03:27:28.091Z,86.30
2019-04-20T03:30:22.777Z,86.60
2019-04-20T03:35:20.798Z,86.50
2019-04-20T03:37:58.658Z,86.90
2019-04-20T03:40:10.264Z,87.30
2019-04-20T03:42:26.611Z,87.60
2019-04-20T03:45:00.553Z,87.70
2019-04-20T03:47:35.915Z,87.60
2019-04-20T03:50:18.070Z,85.50
2019-04-20T03:52:49.807Z,85.40
2019-04-20T03:55:19.919Z,87.60
2019-04-20T03:58:15.319Z,88.60
2019-04-20T04:00:42.503Z,88.60
2019-04-20T04:03:44.123Z,89.60
2019-04-20T04:05:55.941Z,88.50
2019-04-20T04:08:23.729Z,89.90
2019-04-20T04:11:02.408Z,89.70
2019-04-20T04:13:21.176Z,90.30
2019-04-20T04:15:57.545Z,90.60
2019-04-20T04:18:28.016Z,90.50
2019-04-20T04:21:01.465Z,90.60
2019-04-20T04:23:40.893Z,90.30
2019-04-20T04:26:26.426Z,90.30
2019-04-20T04:28:42.355Z,90.50
2019-04-20T04:36:15.540Z,90.00
2019-04-20T04:38:51.488Z,90.40
2019-04-20T04:41:35.462Z,90.40
2019-04-20T04:43:44.353Z,90.40
2019-04-20T04:46:01.575Z,90.30
2019-04-20T04:48:35.783Z,90.40
2019-04-20T04:51:08.391Z,90.20
2019-04-20T04:53:45.449Z,90.10
2019-04-20T04:56:07.156Z,89.60
2019-04-20T04:58:34.012Z,89.70
2019-04-20T05:01:11.750Z,89.20
2019-04-20T05:03:58.187Z,88.70
2019-04-20T05:06:22.033Z,88.80
2019-04-20T05:08:43.759Z,88.80
2019-04-20T05:11:08.984Z,88.10
2019-04-20T05:13:46.781Z,87.40
2019-04-20T05:16:33.615Z,87.30
2019-04-20T05:19:05.146Z,86.80
2019-04-20T05:21:34.238Z,87.00
2019-04-20T05:24:06.251Z,87.60
2019-04-20T05:26:44.780Z,87.80
2019-04-20T05:29:03.448Z,86.80
2019-04-20T05:31:37.994Z,87.60
2019-04-20T05:34:20.470Z,88.60
2019-04-20T05:36:49.328Z,88.10
2019-04-20T05:39:26.958Z,88.70
2019-04-20T05:41:48.583Z,88.00
2019-04-20T05:44:45.780Z,88.70
2019-04-20T05:47:19.688Z,88.70
2019-04-20T05:49:48.389Z,88.80
2019-04-20T05:52:31.634Z,88.60
2019-04-20T05:54:51.391Z,87.40
2019-04-20T05:57:26.344Z,87.90
2019-04-20T06:00:01.612Z,87.80
2019-04-20T06:02:27.694Z,88.10
2019-04-20T06:05:05.651Z,87.70
2019-04-20T06:07:31.108Z,87.20
2019-04-20T06:09:59.798Z,86.80
2019-04-20T06:12:33.116Z,86.20
2019-04-20T06:15:13.283Z,86.60
2019-04-20T06:17:58.398Z,87.50
2019-04-20T06:20:37.972Z,87.40
2019-04-20T06:23:14.274Z,87.90
2019-04-20T06:25:54.843Z,88.70
2019-04-20T06:28:12.856Z,86.00
2019-04-20T06:30:41.756Z,86.50
2019-04-20T06:34:08.908Z,85.90
2019-04-20T06:36:32.501Z,86.70
2019-04-20T06:39:02.319Z,85.60
2019-04-20T06:41:44.683Z,85.30
2019-04-20T06:44:02.507Z,84.50
2019-04-20T06:46:37.586Z,83.60
2019-04-20T06:49:13.514Z,84.50
2019-04-20T06:51:47.648Z,84.90
2019-04-20T06:54:17.336Z,84.40
2019-04-20T06:57:04.233Z,85.60
2019-04-20T06:59:39.309Z,85.60
2019-04-20T07:02:11.982Z,84.20
2019-04-20T07:04:41.762Z,84.10
2019-04-20T07:07:10.196Z,85.10
2019-04-20T07:09:47.468Z,85.80
2019-04-20T07:12:03.148Z,85.90
2019-04-20T07:14:34.444Z,84.30
2019-04-20T07:17:26.990Z,84.80
2019-04-20T07:19:50.225Z,84.20
2019-04-20T07:25:05.418Z,85.90
2019-04-20T07:27:41.558Z,84.70
2019-04-20T07:30:21.910Z,83.00
2019-04-20T07:32:51.129Z,85.00
2019-04-20T07:35:17.177Z,83.40
2019-04-20T07:40:15.090Z,80.00
2019-04-20T07:42:52.384Z,79.00
2019-04-20T07:48:02.727Z,79.90
2019-04-20T07:50:13.634Z,79.50
2019-04-20T07:52:43.226Z,80.00
2019-04-20T07:57:47.402Z,80.80
2019-04-20T08:00:35.578Z,80.10
2019-04-20T08:03:21.962Z,81.80
2019-04-20T08:05:55.228Z,80.50
2019-04-20T08:08:32.586Z,79.00
2019-04-20T08:11:10.310Z,78.10
2019-04-20T08:13:45.609Z,77.00
2019-04-20T08:16:17.035Z,76.30
2019-04-20T08:21:21.004Z,75.00
2019-04-20T08:23:44.102Z,71.30
2019-04-20T08:26:07.387Z,70.50
2019-04-20T08:28:39.162Z,71.30
2019-04-20T08:31:33.347Z,72.30
2019-04-20T08:36:47.843Z,70.20
2019-04-20T08:41:45.108Z,74.70
2019-04-20T08:44:42.876Z,72.70
2019-04-20T08:47:00.328Z,70.00
2019-04-20T08:49:29.529Z,74.80
2019-04-20T08:52:08.266Z,69.80
2019-04-20T08:54:22.088Z,66.80
2019-04-20T08:56:45.166Z,66.30
2019-04-20T08:59:11.523Z,65.10
2019-04-20T09:02:07.183Z,61.60
2019-04-20T09:04:43.487Z,60.00
2019-04-20T09:07:11.450Z,61.50
2019-04-20T09:09:56.462Z,60.20
2019-04-20T09:12:19.163Z,60.70
2019-04-20T09:14:39.438Z,56.70
2019-04-20T09:17:12.758Z,60.10
2019-04-20T09:19:51.196Z,56.70
2019-04-20T09:22:39.749Z,55.80
2019-04-20T09:27:40.743Z,55.20
2019-04-20T09:30:20.491Z,53.90
2019-04-20T09:32:56.100Z,54.10
2019-04-20T09:35:25.318Z,54.70
2019-04-20T09:38:01.719Z,54.20
2019-04-20T09:40:33.613Z,55.70
2019-04-20T09:42:46.270Z,55.80
2019-04-20T09:45:23.225Z,52.90
2019-04-20T09:47:51.510Z,54.60
2019-04-20T09:50:33.693Z,54.90
2019-04-20T09:53:06.064Z,53.90
2019-04-20T09:55:31.346Z,53.50
2019-04-20T09:58:06.242Z,53.10
2019-04-20T10:00:42.143Z,53.00
2019-04-20T10:02:54.802Z,54.60
2019-04-20T10:05:25.358Z,56.40
2019-04-20T10:07:58.723Z,55.00
2019-04-20T10:10:32.286Z,53.50
2019-04-20T10:12:56.421Z,51.90
2019-04-20T10:15:27.873Z,54.60
2019-04-20T10:18:15.789Z,52.50
2019-04-20T10:20:45.547Z,54.50
2019-04-20T10:23:16.377Z,57.40
2019-04-20T10:25:46.728Z,54.60
2019-04-20T10:28:16.058Z,54.80
2019-04-20T10:30:46.306Z,53.50
2019-04-20T10:33:15.596Z,54.30
2019-04-20T10:35:47.680Z,47.80
2019-04-20T10:38:25.654Z,48.00
2019-04-20T10:41:04.231Z,52.10
2019-04-20T10:46:06.925Z,48.30
2019-04-20T10:48:41.745Z,46.30
2019-04-20T10:51:08.459Z,43.90
2019-04-20T10:54:02.752Z,43.90
2019-04-20T10:56:31.657Z,41.80
2019-04-20T10:59:03.386Z,43.30
2019-04-20T11:01:33.730Z,43.60
2019-04-20T11:04:22.951Z,42.70
2019-04-20T11:06:52.398Z,40.80
2019-04-20T11:09:22.695Z,42.40
2019-04-20T11:11:52.431Z,39.70
2019-04-20T11:14:27.965Z,40.10
2019-04-20T11:16:52.219Z,40.30
2019-04-20T11:19:21.520Z,36.90
2019-04-20T11:21:50.815Z,40.50
2019-04-20T11:24:20.463Z,39.10
2019-04-20T11:26:49.874Z,40.10
2019-04-20T11:29:20.011Z,38.90
2019-04-20T11:31:53.075Z,38.20
2019-04-20T11:34:23.682Z,36.80
2019-04-20T11:36:50.875Z,39.30
2019-04-20T11:39:20.931Z,37.90
2019-04-20T11:41:50.231Z,37.70
2019-04-20T11:44:19.992Z,35.60
2019-04-20T11:46:50.882Z,34.60
2019-04-20T11:49:21.522Z,36.20
2019-04-20T11:51:51.829Z,33.20
2019-04-20T11:54:22.093Z,38.70
2019-04-20T11:56:51.455Z,37.80
2019-04-20T11:59:21.079Z,35.80
2019-04-20T12:02:04.122Z,33.90
2019-04-20T12:04:42.149Z,38.40
2019-04-20T12:07:04.734Z,35.20
2019-04-20T12:09:33.937Z,33.90
2019-04-20T12:12:15.635Z,32.80
2019-04-20T12:14:34.627Z,36.70
2019-04-20T12:17:03.881Z,34.10
2019-04-20T12:19:53.217Z,31.50
2019-04-20T12:22:22.442Z,34.50
2019-04-20T12:24:52.171Z,32.30
2019-04-20T12:27:22.854Z,32.90
2019-04-20T12:29:52.535Z,32.80
2019-04-20T12:32:26.325Z,35.60
2019-04-20T12:34:54.049Z,36.70
2019-04-20T12:37:23.463Z,34.60
2019-04-20T12:39:53.279Z,35.30
2019-04-20T12:42:23.114Z,35.60
2019-04-20T12:44:53.827Z,33.70
2019-04-20T12:47:23.838Z,33.70
2019-04-20T12:49:53.840Z,34.00
2019-04-20T12:52:23.650Z,35.40
2019-04-20T12:54:54.538Z,33.30
2019-04-20T12:57:24.750Z,33.90
2019-04-20T12:59:55.733Z,35.00
2019-04-20T13:02:27.185Z,34.50
2019-04-20T13:04:57.642Z,33.30
2019-04-20T13:07:26.937Z,32.90
2019-04-20T13:09:56.986Z,33.50
2019-04-20T13:12:40.690Z,32.80
2019-04-20T13:15:36.313Z,33.10
2019-04-20T13:18:07.449Z,31.60
2019-04-20T13:20:37.726Z,31.40
2019-04-20T13:23:07.496Z,33.10
2019-04-20T13:25:39.235Z,32.60
2019-04-20T13:28:08.974Z,33.80
2019-04-20T13:30:39.735Z,33.00
2019-04-20T13:33:10.123Z,35.70
2019-04-20T13:35:40.528Z,36.60
2019-04-20T13:38:12.039Z,34.50
2019-04-20T13:40:42.127Z,32.70
2019-04-20T13:43:32.976Z,32.00
2019-04-20T13:46:02.927Z,31.90
2019-04-20T13:48:34.887Z,31.90
2019-04-20T13:51:05.463Z,32.90
2019-04-20T13:53:35.048Z,31.20
2019-04-20T13:56:05.459Z,32.50
2019-04-20T13:58:40.113Z,32.60
2019-04-20T14:01:14.674Z,32.30
2019-04-20T14:03:44.997Z,33.70
2019-04-20T14:06:14.398Z,32.90
2019-04-20T14:08:45.383Z,31.70
2019-04-20T14:11:15.608Z,32.60
2019-04-20T14:13:51.885Z,33.50
2019-04-20T14:16:16.755Z,35.40
2019-04-20T14:18:47.125Z,34.00
2019-04-20T14:21:16.426Z,36.50
2019-04-20T14:23:46.079Z,36.50
2019-04-20T14:26:15.187Z,36.90
2019-04-20T14:28:45.090Z,38.70
2019-04-20T14:31:14.384Z,40.70
2019-04-20T14:33:44.637Z,41.70
2019-04-20T14:36:14.810Z,44.00
2019-04-20T14:38:46.287Z,44.50
2019-04-20T14:41:16.035Z,44.40
2019-04-20T14:43:45.185Z,45.50
2019-04-20T14:46:14.673Z,46.30
2019-04-20T14:48:44.943Z,46.80
2019-04-20T14:51:14.106Z,48.40
2019-04-20T14:53:43.297Z,48.70
2019-04-20T14:56:13.554Z,49.90
2019-04-20T14:58:51.355Z,49.60
2019-04-20T15:01:30.214Z,50.90
2019-04-20T15:04:05.808Z,51.10
2019-04-20T15:06:33.352Z,50.30
2019-04-20T15:09:01.319Z,50.60
2019-04-20T15:11:30.532Z,51.60
2019-04-20T15:14:00.692Z,52.20
2019-04-20T15:16:30.744Z,52.30
2019-04-20T15:19:01.590Z,52.50
2019-04-20T15:21:38.120Z,52.80
2019-04-20T15:24:07.062Z,54.20
2019-04-20T15:26:36.280Z,53.00
2019-04-20T15:29:06.344Z,53.10
2019-04-20T15:31:36.391Z,53.10
2019-04-20T15:34:06.877Z,54.00
2019-04-20T15:36:36.191Z,54.20
2019-04-20T15:39:07.464Z,53.90
2019-04-20T15:41:36.762Z,54.10
2019-04-20T15:44:07.200Z,53.90
2019-04-20T15:46:37.040Z,54.60
2019-04-20T15:49:08.100Z,54.50
2019-04-20T15:51:37.542Z,56.30
2019-04-20T15:54:07.533Z,55.90
2019-04-20T15:56:37.606Z,56.20
2019-04-20T15:59:08.330Z,56.50
2019-04-20T16:01:40.598Z,57.00
2019-04-20T16:04:23.109Z,56.90
2019-04-20T16:06:45.225Z,57.00
2019-04-20T16:09:15.677Z,57.30
2019-04-20T16:11:44.941Z,58.70
2019-04-20T16:14:15.350Z,58.50
2019-04-20T16:16:44.576Z,57.60
2019-04-20T16:19:29.175Z,57.20
2019-04-20T16:21:45.618Z,56.60
2019-04-20T16:24:16.785Z,57.40
2019-04-20T16:26:51.483Z,56.80
2019-04-20T16:29:21.806Z,55.90
2019-04-20T16:31:52.052Z,55.10
2019-04-20T16:34:21.539Z,54.90
2019-04-20T16:36:54.338Z,54.20
2019-04-20T16:39:22.587Z,54.50
2019-04-20T16:41:51.898Z,53.80
2019-04-20T16:44:21.059Z,53.80
2019-04-20T16:46:52.068Z,54.10
2019-04-20T16:49:21.344Z,54.70
2019-04-20T16:51:50.737Z,56.00
2019-04-20T16:54:21.666Z,56.50
2019-04-20T16:56:50.974Z,57.00
2019-04-20T16:59:21.246Z,57.80
2019-04-20T17:01:50.803Z,58.20
2019-04-20T17:04:22.650Z,58.80
2019-04-20T17:07:08.019Z,59.10
2019-04-20T17:09:37.876Z,58.40
2019-04-20T17:12:07.814Z,59.10
2019-04-20T17:14:37.865Z,60.10
2019-04-20T17:17:09.361Z,61.60
2019-04-20T17:19:39.849Z,60.90
2019-04-20T17:22:09.657Z,61.20
2019-04-20T17:24:39.907Z,59.40
2019-04-20T17:27:10.919Z,60.50
2019-04-20T17:29:50.136Z,60.50
2019-04-20T17:32:21.172Z,61.80
2019-04-20T17:35:02.024Z,62.70
2019-04-20T17:37:22.522Z,61.30
2019-04-20T17:40:11.149Z,61.50
2019-04-20T17:42:37.367Z,61.50
2019-04-20T17:45:03.819Z,62.60
2019-04-20T17:47:44.607Z,62.40
2019-04-20T17:50:18.894Z,64.30
2019-04-20T17:52:45.927Z,65.70
2019-04-20T17:55:17.826Z,65.70
2019-04-20T17:57:37.247Z,65.90
2019-04-20T18:00:17.620Z,63.40
2019-04-20T18:03:04.556Z,65.10
2019-04-20T18:05:58.409Z,64.20
2019-04-20T18:08:33.932Z,65.00
2019-04-20T18:10:53.123Z,65.30
2019-04-20T18:13:18.484Z,63.90
2019-04-20T18:15:57.010Z,65.00
2019-04-20T18:18:42.115Z,65.60
2019-04-20T18:20:59.018Z,65.80
2019-04-20T18:23:36.284Z,65.20
2019-04-20T18:26:22.717Z,67.10
2019-04-20T18:28:51.656Z,67.70
2019-04-20T18:31:13.380Z,66.80
2019-04-20T18:33:44.517Z,65.80
2019-04-20T18:36:23.657Z,66.80
2019-04-20T18:38:54.340Z,67.80
2019-04-20T18:41:28.818Z,67.00
2019-04-20T18:43:51.782Z,67.90
2019-04-20T18:46:33.084Z,69.00
2019-04-20T18:49:04.869Z,68.80
2019-04-20T18:51:41.762Z,71.50
2019-04-20T18:54:17.212Z,70.40
2019-04-20T18:56:47.192Z,71.90
2019-04-20T18:59:13.374Z,72.00
2019-04-20T19:01:45.484Z,73.10
2019-04-20T19:04:14.555Z,71.80
2019-04-20T19:06:43.811Z,73.00
2019-04-20T19:09:16.699Z,73.00
2019-04-20T19:11:52.136Z,74.30
2019-04-20T19:14:37.053Z,74.10
2019-04-20T19:17:22.436Z,75.60
2019-04-20T19:19:51.244Z,76.40
2019-04-20T19:22:17.523Z,76.70
2019-04-20T19:24:47.667Z,77.40
2019-04-20T19:27:18.882Z,78.00
2019-04-20T19:29:56.448Z,78.80
2019-04-20T19:32:34.415Z,78.50
2019-04-20T19:34:59.614Z,78.60
2019-04-20T19:37:26.098Z,78.70
2019-04-20T19:40:05.868Z,78.90
2019-04-20T19:42:34.691Z,79.60
2019-04-20T19:45:08.814Z,79.70
2019-04-20T19:47:43.770Z,78.60
2019-04-20T19:50:25.184Z,80.00
2019-04-20T19:52:50.394Z,79.50
2019-04-20T19:55:10.798Z,79.20
2019-04-20T19:57:42.859Z,79.40
2019-04-20T19:59:56.663Z,80.10
2019-04-20T20:02:25.920Z,80.90
2019-04-20T20:05:02.748Z,80.90
2019-04-20T20:07:30.903Z,81.80
2019-04-20T20:10:00.499Z,82.30
2019-04-20T20:12:27.448Z,82.60
2019-04-20T20:14:57.440Z,82.80
2019-04-20T20:17:48.589Z,82.00
2019-04-20T20:20:28.868Z,82.00
2019-04-20T20:22:37.172Z,82.90
2019-04-20T20:25:01.074Z,82.50
2019-04-20T20:27:39.964Z,83.00
2019-04-20T20:30:10.204Z,83.50
2019-04-20T20:32:49.327Z,83.50
2019-04-20T20:35:12.549Z,83.60
2019-04-20T20:37:42.540Z,85.00
2019-04-20T20:40:16.064Z,84.60
2019-04-20T20:42:55.237Z,84.70
2019-04-20T20:45:19.873Z,84.30
2019-04-20T20:48:01.859Z,84.90
2019-04-20T20:50:33.709Z,84.00
2019-04-20T20:52:55.947Z,84.20
2019-04-20T20:55:27.835Z,84.60
2019-04-20T20:57:53.596Z,85.90
2019-04-20T21:00:34.521Z,84.70
2019-04-20T21:02:56.225Z,85.20
2019-04-20T21:05:15.953Z,83.70
2019-04-20T21:07:47.911Z,84.50
2019-04-20T21:10:25.662Z,82.90
2019-04-20T21:12:53.863Z,82.20
2019-04-20T21:15:20.799Z,82.70
2019-04-20T21:18:12.201Z,82.80
2019-04-20T21:20:42.288Z,82.80
2019-04-20T21:23:07.251Z,84.00
2019-04-20T21:25:26.369Z,84.00
2019-04-20T21:27:55.100Z,82.60
2019-04-20T21:30:32.578Z,82.70
2019-04-20T21:32:59.106Z,84.00
2019-04-20T21:35:25.919Z,84.40
2019-04-20T21:38:02.470Z,83.90
2019-04-20T21:40:34.370Z,83.80
2019-04-20T21:43:00.688Z,80.60
2019-04-20T21:45:33.870Z,84.30
2019-04-20T21:48:01.333Z,86.50
2019-04-20T21:50:50.681Z,87.20
2019-04-20T21:53:09.712Z,87.90
2019-04-20T21:55:30.415Z,87.80
2019-04-20T21:58:00.810Z,89.20
2019-04-20T22:00:39.162Z,89.20
2019-04-20T22:03:06.276Z,88.60
2019-04-20T22:05:34.619Z,86.10
2019-04-20T22:08:07.895Z,86.10
2019-04-20T22:10:34.816Z,86.50
2019-04-20T22:13:04.865Z,86.80
2019-04-20T22:15:36.595Z,86.10
2019-04-20T22:18:09.785Z,87.90
2019-04-20T22:20:49.623Z,88.50
2019-04-20T22:23:22.839Z,88.10
2019-04-20T22:25:56.630Z,87.90
2019-04-20T22:28:08.732Z,87.60
2019-04-20T22:30:38.072Z,88.20
2019-04-20T22:33:31.931Z,88.90
2019-04-20T22:36:00.929Z,88.90
2019-04-20T22:38:30.918Z,88.30
2019-04-20T22:41:06.638Z,89.00
2019-04-20T22:43:35.013Z,88.40
2019-04-20T22:46:01.466Z,87.40
2019-04-20T22:48:31.355Z,88.50
2019-04-20T22:51:19.633Z,88.40
2019-04-20T22:53:46.291Z,87.30
2019-04-20T22:56:22.824Z,87.90
2019-04-20T22:58:44.805Z,88.40
2019-04-20T23:01:14.357Z,87.00
2019-04-20T23:03:34.704Z,87.40
2019-04-20T23:06:04.817Z,87.00
2019-04-20T23:08:35.027Z,89.00
2019-04-20T23:11:05.879Z,90.10
2019-04-20T23:13:39.738Z,90.10
2019-04-20T23:16:06.102Z,89.50
2019-04-20T23:18:36.288Z,89.20
2019-04-20T23:23:53.665Z,87.00
2019-04-20T23:26:30.857Z,87.80
2019-04-20T23:28:58.637Z,87.40
2019-04-20T23:31:29.046Z,87.90
2019-04-20T23:34:01.381Z,88.60
2019-04-20T23:36:38.234Z,89.00
2019-04-20T23:39:03.053Z,89.30
2019-04-20T23:41:31.726Z,88.80
2019-04-20T23:44:08.243Z,88.70
2019-04-20T23:46:37.290Z,87.70
2019-04-20T23:49:27.793Z,86.80
2019-04-20T23:52:21.385Z,87.20
2019-04-20T23:54:29.766Z,87.10
2019-04-20T23:56:57.691Z,88.00
2019-04-20T23:59:34.295Z,87.90
